sensor_id;sensor_type;location;lat;lon;timestamp;pressure;altitude;pressure_sealevel;temperature;humidity
68525;BME280;55524;51.380;13.372;2022-11-20T00:01:42;100365.19;;;-4.68;100.00
68525;BME280;55524;51.380;13.372;2022-11-20T00:04:29;100353.00;;;-4.76;100.00
68525;BME280;55524;51.380;13.372;2022-11-20T00:07:16;100359.94;;;-4.73;100.00
68525;BME280;55524;51.380;13.372;2022-11-20T00:12:49;100344.66;;;-4.64;100.00
68525;BME280;55524;51.380;13.372;2022-11-20T00:15:15;100356.59;;;-4.69;100.00
68525;BME280;55524;51.380;13.372;2022-11-20T00:18:01;100353.91;;;-4.74;100.00
68525;BME280;55524;51.380;13.372;2022-11-20T00:20:30;100353.03;;;-4.74;100.00
68525;BME280;55524;51.380;13.372;2022-11-20T00:23:17;100350.41;;;-4.77;100.00
68525;BME280;55524;51.380;13.372;2022-11-20T00:25:43;100349.47;;;-4.79;100.00
68525;BME280;55524;51.380;13.372;2022-11-20T00:28:09;100352.88;;;-4.80;100.00
68525;BME280;55524;51.380;13.372;2022-11-20T00:30:35;100349.44;;;-4.82;100.00
68525;BME280;55524;51.380;13.372;2022-11-20T00:33:22;100353.63;;;-4.86;100.00
68525;BME280;55524;51.380;13.372;2022-11-20T00:36:09;100360.53;;;-4.85;100.00
68525;BME280;55524;51.380;13.372;2022-11-20T00:38:56;100352.78;;;-4.86;100.00
68525;BME280;55524;51.380;13.372;2022-11-20T00:41:31;100354.56;;;-4.82;100.00
68525;BME280;55524;51.380;13.372;2022-11-20T00:44:21;100357.84;;;-4.89;100.00
68525;BME280;55524;51.380;13.372;2022-11-20T00:47:07;100362.03;;;-4.93;100.00
68525;BME280;55524;51.380;13.372;2022-11-20T00:49:54;100359.63;;;-4.87;100.00
68525;BME280;55524;51.380;13.372;2022-11-20T00:52:20;100359.56;;;-4.90;100.00
68525;BME280;55524;51.380;13.372;2022-11-20T00:54:55;100356.06;;;-4.92;100.00
68525;BME280;55524;51.380;13.372;2022-11-20T00:58:02;100353.41;;;-4.95;100.00
68525;BME280;55524;51.380;13.372;2022-11-20T01:00:48;100352.44;;;-5.00;100.00
68525;BME280;55524;51.380;13.372;2022-11-20T01:03:24;100347.25;;;-5.02;100.00
68525;BME280;55524;51.380;13.372;2022-11-20T01:05:50;100348.91;;;-5.04;100.00
68525;BME280;55524;51.380;13.372;2022-11-20T01:08:28;100346.31;;;-5.05;100.00
68525;BME280;55524;51.380;13.372;2022-11-20T01:10:59;100348.97;;;-5.02;100.00
68525;BME280;55524;51.380;13.372;2022-11-20T01:13:50;100349.00;;;-4.99;100.00
68525;BME280;55524;51.380;13.372;2022-11-20T01:16:56;100355.09;;;-4.97;100.00
68525;BME280;55524;51.380;13.372;2022-11-20T01:19:43;100355.94;;;-4.98;100.00
68525;BME280;55524;51.380;13.372;2022-11-20T01:22:10;100356.72;;;-4.99;100.00
68525;BME280;55524;51.380;13.372;2022-11-20T01:24:45;100356.03;;;-4.93;100.00
68525;BME280;55524;51.380;13.372;2022-11-20T01:27:23;100362.03;;;-4.95;100.00
68525;BME280;55524;51.380;13.372;2022-11-20T01:29:49;100359.38;;;-4.98;100.00
68525;BME280;55524;51.380;13.372;2022-11-20T01:32:15;100360.22;;;-4.97;100.00
68525;BME280;55524;51.380;13.372;2022-11-20T01:35:20;100361.84;;;-5.02;100.00
68525;BME280;55524;51.380;13.372;2022-11-20T01:37:55;100357.44;;;-5.06;100.00
68525;BME280;55524;51.380;13.372;2022-11-20T01:40:30;100360.06;;;-5.05;100.00
68525;BME280;55524;51.380;13.372;2022-11-20T01:43:31;100355.69;;;-5.07;100.00
68525;BME280;55524;51.380;13.372;2022-11-20T01:46:15;100354.81;;;-5.08;100.00
68525;BME280;55524;51.380;13.372;2022-11-20T01:48:50;100350.53;;;-5.07;100.00
68525;BME280;55524;51.380;13.372;2022-11-20T01:54:20;100351.25;;;-5.14;100.00
68525;BME280;55524;51.380;13.372;2022-11-20T01:57:12;100350.34;;;-5.15;100.00
68525;BME280;55524;51.380;13.372;2022-11-20T02:00:10;100350.13;;;-5.24;100.00
68525;BME280;55524;51.380;13.372;2022-11-20T02:03:03;100348.47;;;-5.22;100.00
68525;BME280;55524;51.380;13.372;2022-11-20T02:08:26;100353.44;;;-5.30;100.00
68525;BME280;55524;51.380;13.372;2022-11-20T02:10:52;100358.69;;;-5.25;100.00
68525;BME280;55524;51.380;13.372;2022-11-20T02:13:18;100349.19;;;-5.28;100.00
68525;BME280;55524;51.380;13.372;2022-11-20T02:16:13;100349.19;;;-5.28;100.00
68525;BME280;55524;51.380;13.372;2022-11-20T02:19:14;100348.28;;;-5.30;100.00
68525;BME280;55524;51.380;13.372;2022-11-20T02:24:31;100342.88;;;-5.40;100.00
68525;BME280;55524;51.380;13.372;2022-11-20T02:29:48;100343.63;;;-5.45;100.00
68525;BME280;55524;51.380;13.372;2022-11-20T02:32:36;100339.25;;;-5.47;100.00
68525;BME280;55524;51.380;13.372;2022-11-20T02:38:05;100331.63;;;-5.44;100.00
68525;BME280;55524;51.380;13.372;2022-11-20T02:40:34;100323.69;;;-5.52;100.00
68525;BME280;55524;51.380;13.372;2022-11-20T02:43:18;100325.44;;;-5.51;100.00
68525;BME280;55524;51.380;13.372;2022-11-20T02:46:11;100325.31;;;-5.55;100.00
68525;BME280;55524;51.380;13.372;2022-11-20T02:48:37;100327.97;;;-5.52;100.00
68525;BME280;55524;51.380;13.372;2022-11-20T02:51:24;100328.81;;;-5.53;100.00
68525;BME280;55524;51.380;13.372;2022-11-20T02:53:50;100321.00;;;-5.58;100.00
68525;BME280;55524;51.380;13.372;2022-11-20T02:56:17;100322.66;;;-5.58;100.00
68525;BME280;55524;51.380;13.372;2022-11-20T02:59:03;100320.91;;;-5.61;100.00
68525;BME280;55524;51.380;13.372;2022-11-20T03:01:42;100328.66;;;-5.59;100.00
68525;BME280;55524;51.380;13.372;2022-11-20T03:04:08;100320.09;;;-5.58;100.00
68525;BME280;55524;51.380;13.372;2022-11-20T03:09:45;100323.63;;;-5.55;100.00
68525;BME280;55524;51.380;13.372;2022-11-20T03:12:11;100321.78;;;-5.60;100.00
68525;BME280;55524;51.380;13.372;2022-11-20T03:14:58;100318.16;;;-5.67;100.00
68525;BME280;55524;51.380;13.372;2022-11-20T03:17:44;100325.75;;;-5.72;100.00
68525;BME280;55524;51.380;13.372;2022-11-20T03:20:31;100318.66;;;-5.82;100.00
68525;BME280;55524;51.380;13.372;2022-11-20T03:23:06;100323.91;;;-5.77;100.00
68525;BME280;55524;51.380;13.372;2022-11-20T03:25:36;100316.13;;;-5.79;100.00
68525;BME280;55524;51.380;13.372;2022-11-20T03:28:14;100311.09;;;-5.74;100.00
68525;BME280;55524;51.380;13.372;2022-11-20T03:30:43;100317.00;;;-5.78;100.00
68525;BME280;55524;51.380;13.372;2022-11-20T03:36:37;100310.22;;;-5.75;100.00
68525;BME280;55524;51.380;13.372;2022-11-20T03:39:06;100299.94;;;-5.75;100.00
68525;BME280;55524;51.380;13.372;2022-11-20T03:41:50;100295.66;;;-5.74;100.00
68525;BME280;55524;51.380;13.372;2022-11-20T03:44:17;100294.94;;;-5.70;100.00
68525;BME280;55524;51.380;13.372;2022-11-20T03:47:27;100295.84;;;-5.68;100.00
68525;BME280;55524;51.380;13.372;2022-11-20T03:49:53;100289.94;;;-5.64;100.00
68525;BME280;55524;51.380;13.372;2022-11-20T03:52:40;100296.00;;;-5.62;100.00
68525;BME280;55524;51.380;13.372;2022-11-20T03:55:27;100289.97;;;-5.62;100.00
68525;BME280;55524;51.380;13.372;2022-11-20T03:57:53;100291.78;;;-5.58;100.00
68525;BME280;55524;51.380;13.372;2022-11-20T04:00:19;100291.88;;;-5.55;100.00
68525;BME280;55524;51.380;13.372;2022-11-20T04:02:46;100289.41;;;-5.51;100.00
68525;BME280;55524;51.380;13.372;2022-11-20T04:08:53;100281.72;;;-5.49;100.00
68525;BME280;55524;51.380;13.372;2022-11-20T04:11:19;100280.00;;;-5.50;100.00
68525;BME280;55524;51.380;13.372;2022-11-20T04:14:26;100275.72;;;-5.50;100.00
68525;BME280;55524;51.380;13.372;2022-11-20T04:17:13;100280.75;;;-5.54;100.00
68525;BME280;55524;51.380;13.372;2022-11-20T04:19:39;100273.94;;;-5.52;100.00
68525;BME280;55524;51.380;13.372;2022-11-20T04:22:14;100272.97;;;-5.56;100.00
68525;BME280;55524;51.380;13.372;2022-11-20T04:25:24;100276.41;;;-5.57;100.00
68525;BME280;55524;51.380;13.372;2022-11-20T04:27:50;100273.09;;;-5.51;100.00
68525;BME280;55524;51.380;13.372;2022-11-20T04:30:37;100271.34;;;-5.52;100.00
68525;BME280;55524;51.380;13.372;2022-11-20T04:33:24;100282.59;;;-5.49;100.00
68525;BME280;55524;51.380;13.372;2022-11-20T04:35:49;100278.25;;;-5.51;100.00
68525;BME280;55524;51.380;13.372;2022-11-20T04:38:16;100275.66;;;-5.51;100.00
68525;BME280;55524;51.380;13.372;2022-11-20T04:41:21;100275.66;;;-5.51;100.00
68525;BME280;55524;51.380;13.372;2022-11-20T04:44:10;100267.06;;;-5.52;100.00
68525;BME280;55524;51.380;13.372;2022-11-20T04:46:47;100277.16;;;-5.61;100.00
68525;BME280;55524;51.380;13.372;2022-11-20T04:49:23;100278.13;;;-5.56;100.00
68525;BME280;55524;51.380;13.372;2022-11-20T04:51:52;100277.94;;;-5.63;100.00
68525;BME280;55524;51.380;13.372;2022-11-20T05:00:39;100271.91;;;-5.65;100.00
68525;BME280;55524;51.380;13.372;2022-11-20T05:03:11;100268.41;;;-5.68;100.00
68525;BME280;55524;51.380;13.372;2022-11-20T05:06:21;100270.78;;;-5.75;100.00
68525;BME280;55524;51.380;13.372;2022-11-20T05:09:29;100267.50;;;-5.70;100.00
68525;BME280;55524;51.380;13.372;2022-11-20T05:12:23;100267.44;;;-5.71;100.00
68525;BME280;55524;51.380;13.372;2022-11-20T05:15:10;100271.53;;;-5.79;100.00
68525;BME280;55524;51.380;13.372;2022-11-20T05:17:36;100267.13;;;-5.85;100.00
68525;BME280;55524;51.380;13.372;2022-11-20T05:20:09;100266.44;;;-5.78;100.00
68525;BME280;55524;51.380;13.372;2022-11-20T05:23:19;100258.53;;;-5.85;100.00
68525;BME280;55524;51.380;13.372;2022-11-20T05:26:06;100256.91;;;-5.82;100.00
68525;BME280;55524;51.380;13.372;2022-11-20T05:28:41;100260.47;;;-5.77;100.00
68525;BME280;55524;51.380;13.372;2022-11-20T05:31:29;100259.72;;;-5.71;100.00
68525;BME280;55524;51.380;13.372;2022-11-20T05:33:59;100260.66;;;-5.69;100.00
68525;BME280;55524;51.380;13.372;2022-11-20T05:36:45;100261.53;;;-5.67;100.00
68525;BME280;55524;51.380;13.372;2022-11-20T05:39:11;100264.06;;;-5.70;100.00
68525;BME280;55524;51.380;13.372;2022-11-20T05:41:58;100266.75;;;-5.65;100.00
68525;BME280;55524;51.380;13.372;2022-11-20T05:45:04;100259.91;;;-5.63;100.00
68525;BME280;55524;51.380;13.372;2022-11-20T05:47:49;100252.97;;;-5.68;100.00
68525;BME280;55524;51.380;13.372;2022-11-20T05:50:45;100253.72;;;-5.72;100.00
68525;BME280;55524;51.380;13.372;2022-11-20T05:53:34;100254.66;;;-5.68;100.00
68525;BME280;55524;51.380;13.372;2022-11-20T06:01:28;100241.50;;;-5.80;100.00
68525;BME280;55524;51.380;13.372;2022-11-20T06:04:38;100247.44;;;-5.83;100.00
68525;BME280;55524;51.380;13.372;2022-11-20T06:07:25;100249.09;;;-5.85;100.00
68525;BME280;55524;51.380;13.372;2022-11-20T06:09:51;100241.34;;;-5.86;100.00
68525;BME280;55524;51.380;13.372;2022-11-20T06:12:26;100237.94;;;-5.85;100.00
68525;BME280;55524;51.380;13.372;2022-11-20T06:14:56;100235.25;;;-5.90;100.00
68525;BME280;55524;51.380;13.372;2022-11-20T06:20:38;100247.28;;;-5.89;100.00
68525;BME280;55524;51.380;13.372;2022-11-20T06:23:24;100246.38;;;-5.91;100.00
68525;BME280;55524;51.380;13.372;2022-11-20T06:25:50;100242.09;;;-5.90;100.00
68525;BME280;55524;51.380;13.372;2022-11-20T06:28:25;100241.13;;;-5.96;100.00
68525;BME280;55524;51.380;13.372;2022-11-20T06:30:52;100248.78;;;-5.99;100.00
68525;BME280;55524;51.380;13.372;2022-11-20T06:33:18;100244.44;;;-6.01;100.00
68525;BME280;55524;51.380;13.372;2022-11-20T06:35:55;100242.84;;;-5.96;100.00
68525;BME280;55524;51.380;13.372;2022-11-20T06:38:21;100240.09;;;-6.02;100.00
68525;BME280;55524;51.380;13.372;2022-11-20T06:41:08;100236.84;;;-5.97;100.00
68525;BME280;55524;51.380;13.372;2022-11-20T06:43:34;100235.91;;;-5.99;100.00
68525;BME280;55524;51.380;13.372;2022-11-20T06:46:21;100232.56;;;-5.96;100.00
68525;BME280;55524;51.380;13.372;2022-11-20T06:48:57;100229.22;;;-5.90;100.00
68525;BME280;55524;51.380;13.372;2022-11-20T06:51:44;100227.53;;;-5.90;100.00
68525;BME280;55524;51.380;13.372;2022-11-20T06:54:34;100231.03;;;-5.86;100.00
68525;BME280;55524;51.380;13.372;2022-11-20T06:57:40;100238.72;;;-5.89;100.00
68525;BME280;55524;51.380;13.372;2022-11-20T07:02:56;100244.06;;;-5.80;100.00
68525;BME280;55524;51.380;13.372;2022-11-20T07:05:38;100242.53;;;-5.74;100.00
68525;BME280;55524;51.380;13.372;2022-11-20T07:08:25;100233.00;;;-5.78;100.00
68525;BME280;55524;51.380;13.372;2022-11-20T07:11:14;100241.63;;;-5.74;100.00
68525;BME280;55524;51.380;13.372;2022-11-20T07:13:41;100238.44;;;-5.65;100.00
68525;BME280;55524;51.380;13.372;2022-11-20T07:16:28;100243.63;;;-5.64;100.00
68525;BME280;55524;51.380;13.372;2022-11-20T07:19:14;100241.16;;;-5.59;100.00
68525;BME280;55524;51.380;13.372;2022-11-20T07:21:40;100244.66;;;-5.56;100.00
68525;BME280;55524;51.380;13.372;2022-11-20T07:24:27;100243.97;;;-5.50;100.00
68525;BME280;55524;51.380;13.372;2022-11-20T07:27:13;100244.13;;;-5.43;99.66
68525;BME280;55524;51.380;13.372;2022-11-20T07:32:36;100240.09;;;-5.31;98.67
68525;BME280;55524;51.380;13.372;2022-11-20T07:35:22;100230.97;;;-5.18;97.14
68525;BME280;55524;51.380;13.372;2022-11-20T07:37:48;100222.34;;;-4.37;96.81
68525;BME280;55524;51.380;13.372;2022-11-20T07:40:24;100200.03;;;-2.65;86.91
68525;BME280;55524;51.380;13.372;2022-11-20T07:43:01;100141.69;;;-1.34;77.65
68525;BME280;55524;51.380;13.372;2022-11-20T07:45:47;100118.53;;;-0.95;74.05
68525;BME280;55524;51.380;13.372;2022-11-20T07:51:10;100084.94;;;-0.63;69.72
68525;BME280;55524;51.380;13.372;2022-11-20T07:53:37;100093.59;;;-0.40;69.85
68525;BME280;55524;51.380;13.372;2022-11-20T07:56:03;100091.00;;;-0.37;69.67
68525;BME280;55524;51.380;13.372;2022-11-20T07:58:50;100119.31;;;-1.12;72.52
68525;BME280;55524;51.380;13.372;2022-11-20T08:01:37;100147.66;;;-1.45;74.95
68525;BME280;55524;51.380;13.372;2022-11-20T08:04:43;100182.25;;;-2.39;78.42
68525;BME280;55524;51.380;13.372;2022-11-20T08:07:12;100193.03;;;-2.77;81.93
68525;BME280;55524;51.380;13.372;2022-11-20T08:09:41;100195.88;;;-3.21;82.85
68525;BME280;55524;51.380;13.372;2022-11-20T08:12:42;100204.47;;;-3.77;86.28
68525;BME280;55524;51.380;13.372;2022-11-20T08:15:35;100205.25;;;-3.84;88.44
68525;BME280;55524;51.380;13.372;2022-11-20T08:18:20;100209.22;;;-4.03;89.69
68525;BME280;55524;51.380;13.372;2022-11-20T08:24:06;100213.44;;;-4.08;91.61
68525;BME280;55524;51.380;13.372;2022-11-20T08:26:34;100220.41;;;-4.01;92.03
68525;BME280;55524;51.380;13.372;2022-11-20T08:29:20;100216.31;;;-3.91;91.87
68525;BME280;55524;51.380;13.372;2022-11-20T08:34:57;100216.69;;;-3.68;91.96
68525;BME280;55524;51.380;13.372;2022-11-20T08:37:26;100217.59;;;-3.64;90.36
68525;BME280;55524;51.380;13.372;2022-11-20T08:40:16;100215.19;;;-3.54;90.09
68525;BME280;55524;51.380;13.372;2022-11-20T08:42:58;100211.94;;;-3.42;90.89
68525;BME280;55524;51.380;13.372;2022-11-20T08:45:34;100213.66;;;-3.41;90.43
68525;BME280;55524;51.380;13.372;2022-11-20T08:51:33;100206.94;;;-3.30;89.17
68525;BME280;55524;51.380;13.372;2022-11-20T08:54:29;100210.50;;;-3.22;89.58
68525;BME280;55524;51.380;13.372;2022-11-20T09:00:01;100205.59;;;-3.02;89.58
68525;BME280;55524;51.380;13.372;2022-11-20T09:02:48;100202.47;;;-2.78;90.50
68525;BME280;55524;51.380;13.372;2022-11-20T09:08:45;100187.19;;;-2.59;88.88
68525;BME280;55524;51.380;13.372;2022-11-20T09:11:41;100189.88;;;-2.52;89.70
68525;BME280;55524;51.380;13.372;2022-11-20T09:14:25;100181.38;;;-2.40;88.37
68525;BME280;55524;51.380;13.372;2022-11-20T09:17:38;100188.31;;;-2.36;88.00
68525;BME280;55524;51.380;13.372;2022-11-20T09:22:42;100189.41;;;-2.12;89.25
68525;BME280;55524;51.380;13.372;2022-11-20T09:25:34;100192.06;;;-2.06;89.94
68525;BME280;55524;51.380;13.372;2022-11-20T09:31:29;100177.59;;;-1.86;89.07
68525;BME280;55524;51.380;13.372;2022-11-20T09:34:15;100181.97;;;-1.77;88.73
68525;BME280;55524;51.380;13.372;2022-11-20T09:37:02;100172.50;;;-1.70;88.69
68525;BME280;55524;51.380;13.372;2022-11-20T09:49:06;100153.75;;;-1.40;88.31
68525;BME280;55524;51.380;13.372;2022-11-20T09:54:45;100145.25;;;-1.13;87.86
68525;BME280;55524;51.380;13.372;2022-11-20T09:58:02;100143.53;;;-1.08;88.16
68525;BME280;55524;51.380;13.372;2022-11-20T10:00:35;100143.66;;;-0.84;88.27
68525;BME280;55524;51.380;13.372;2022-11-20T10:03:49;100134.13;;;-0.94;87.92
68525;BME280;55524;51.380;13.372;2022-11-20T10:06:44;100135.00;;;-0.89;88.06
68525;BME280;55524;51.380;13.372;2022-11-20T10:09:56;100135.03;;;-0.77;87.86
68525;BME280;55524;51.380;13.372;2022-11-20T10:15:27;100128.13;;;-0.71;88.05
68525;BME280;55524;51.380;13.372;2022-11-20T10:30:41;100114.31;;;-0.69;87.94
68525;BME280;55524;51.380;13.372;2022-11-20T10:48:34;100096.19;;;-0.54;88.12
68525;BME280;55524;51.380;13.372;2022-11-20T10:53:57;100087.53;;;-0.53;87.61
68525;BME280;55524;51.380;13.372;2022-11-20T11:01:46;100088.41;;;-0.51;84.39
68525;BME280;55524;51.380;13.372;2022-11-20T11:05:04;100100.53;;;-0.51;85.60
68525;BME280;55524;51.380;13.372;2022-11-20T11:08:10;100084.09;;;-0.50;85.83
68525;BME280;55524;51.380;13.372;2022-11-20T11:16:48;100093.56;;;-0.70;86.93
68525;BME280;55524;51.380;13.372;2022-11-20T11:19:36;100104.78;;;-0.64;88.11
68525;BME280;55524;51.380;13.372;2022-11-20T11:22:26;100091.00;;;-0.58;87.12
68525;BME280;55524;51.380;13.372;2022-11-20T11:24:57;100094.44;;;-0.61;86.39
68525;BME280;55524;51.380;13.372;2022-11-20T11:27:47;100085.78;;;-0.57;86.94
68525;BME280;55524;51.380;13.372;2022-11-20T11:30:40;100092.75;;;-0.51;87.29
68525;BME280;55524;51.380;13.372;2022-11-20T11:33:44;100075.44;;;-0.49;86.58
68525;BME280;55524;51.380;13.372;2022-11-20T11:39:14;100069.38;;;-0.51;86.19
68525;BME280;55524;51.380;13.372;2022-11-20T11:42:20;100072.84;;;-0.44;87.66
68525;BME280;55524;51.380;13.372;2022-11-20T11:45:11;100071.13;;;-0.39;88.54
68525;BME280;55524;51.380;13.372;2022-11-20T11:48:02;100066.78;;;-0.40;87.92
68525;BME280;55524;51.380;13.372;2022-11-20T11:50:55;100062.44;;;-0.40;87.73
68525;BME280;55524;51.380;13.372;2022-11-20T11:53:56;100063.34;;;-0.38;86.76
68525;BME280;55524;51.380;13.372;2022-11-20T11:56:31;100065.06;;;-0.43;87.18
68525;BME280;55524;51.380;13.372;2022-11-20T11:59:41;100058.13;;;-0.41;87.08
68525;BME280;55524;51.380;13.372;2022-11-20T12:08:12;100053.81;;;-0.17;87.24
68525;BME280;55524;51.380;13.372;2022-11-20T12:13:52;100049.50;;;-0.21;85.97
68525;BME280;55524;51.380;13.372;2022-11-20T12:16:49;100046.03;;;-0.11;86.60
68525;BME280;55524;51.380;13.372;2022-11-20T12:19:22;100042.56;;;-0.10;86.30
68525;BME280;55524;51.380;13.372;2022-11-20T12:38:31;100032.13;;;0.22;84.85
68525;BME280;55524;51.380;13.372;2022-11-20T12:44:31;100030.38;;;0.27;83.57
68525;BME280;55524;51.380;13.372;2022-11-20T12:56:03;100016.56;;;0.10;81.96
68525;BME280;55524;51.380;13.372;2022-11-20T13:08:19;100019.84;;;0.70;81.65
68525;BME280;55524;51.380;13.372;2022-11-20T13:22:55;100025.22;;;0.16;85.63
68525;BME280;55524;51.380;13.372;2022-11-20T13:25:33;100019.16;;;0.04;86.04
68525;BME280;55524;51.380;13.372;2022-11-20T13:28:03;100020.91;;;-0.06;88.04
68525;BME280;55524;51.380;13.372;2022-11-20T13:30:53;100019.16;;;0.20;88.03
68525;BME280;55524;51.380;13.372;2022-11-20T13:33:45;100015.59;;;0.46;85.95
68525;BME280;55524;51.380;13.372;2022-11-20T13:36:57;100019.06;;;0.43;85.79
68525;BME280;55524;51.380;13.372;2022-11-20T13:39:47;100023.47;;;0.32;85.80
68525;BME280;55524;51.380;13.372;2022-11-20T13:45:25;100023.47;;;0.11;87.67
68525;BME280;55524;51.380;13.372;2022-11-20T13:48:02;100016.59;;;-0.10;88.13
68525;BME280;55524;51.380;13.372;2022-11-20T13:53:22;100007.06;;;0.01;88.70
68525;BME280;55524;51.380;13.372;2022-11-20T14:02:30;100019.19;;;0.08;86.49
68525;BME280;55524;51.380;13.372;2022-11-20T14:05:19;100012.22;;;0.12;87.06
68525;BME280;55524;51.380;13.372;2022-11-20T14:07:51;100016.56;;;0.20;86.77
68525;BME280;55524;51.380;13.372;2022-11-20T14:10:25;100010.50;;;0.17;87.33
68525;BME280;55524;51.380;13.372;2022-11-20T14:13:21;100007.94;;;0.05;88.50
68525;BME280;55524;51.380;13.372;2022-11-20T14:15:47;100007.91;;;-0.05;89.34
68525;BME280;55524;51.380;13.372;2022-11-20T14:18:31;99999.31;;;-0.19;88.92
68525;BME280;55524;51.380;13.372;2022-11-20T14:21:21;99993.25;;;-0.12;88.65
68525;BME280;55524;51.380;13.372;2022-11-20T14:23:53;99994.94;;;-0.12;89.10
68525;BME280;55524;51.380;13.372;2022-11-20T14:26:44;99997.56;;;-0.20;89.59
68525;BME280;55524;51.380;13.372;2022-11-20T14:29:49;100004.50;;;-0.42;90.97
68525;BME280;55524;51.380;13.372;2022-11-20T14:32:29;100006.22;;;-0.36;91.02
68525;BME280;55524;51.380;13.372;2022-11-20T14:35:20;100000.19;;;-0.46;91.32
68525;BME280;55524;51.380;13.372;2022-11-20T14:41:05;100000.16;;;-0.64;92.05
68525;BME280;55524;51.380;13.372;2022-11-20T14:43:55;99994.97;;;-0.73;92.86
68525;BME280;55524;51.380;13.372;2022-11-20T14:52:18;100001.78;;;-1.23;95.67
68525;BME280;55524;51.380;13.372;2022-11-20T14:57:56;100012.09;;;-1.40;97.15
68525;BME280;55524;51.380;13.372;2022-11-20T15:00:28;100012.00;;;-1.61;98.39
68525;BME280;55524;51.380;13.372;2022-11-20T15:03:15;100008.50;;;-1.68;99.17
68525;BME280;55524;51.380;13.372;2022-11-20T15:06:11;100005.91;;;-1.74;100.00
68525;BME280;55524;51.380;13.372;2022-11-20T15:08:51;99993.81;;;-1.78;100.00
68525;BME280;55524;51.380;13.372;2022-11-20T15:14:29;99986.84;;;-1.85;100.00
68525;BME280;55524;51.380;13.372;2022-11-20T15:17:16;99989.41;;;-1.87;100.00
68525;BME280;55524;51.380;13.372;2022-11-20T15:19:48;99997.19;;;-1.88;100.00
68525;BME280;55524;51.380;13.372;2022-11-20T15:22:26;99984.22;;;-1.91;100.00
68525;BME280;55524;51.380;13.372;2022-11-20T15:25:32;99983.34;;;-1.92;100.00
68525;BME280;55524;51.380;13.372;2022-11-20T15:27:58;99991.94;;;-1.99;100.00
68525;BME280;55524;51.380;13.372;2022-11-20T15:30:50;99991.88;;;-2.08;100.00
68525;BME280;55524;51.380;13.372;2022-11-20T15:33:21;100000.50;;;-2.12;100.00
68525;BME280;55524;51.380;13.372;2022-11-20T15:35:59;100011.69;;;-2.15;100.00
68525;BME280;55524;51.380;13.372;2022-11-20T15:39:09;100003.88;;;-2.19;100.00
68525;BME280;55524;51.380;13.372;2022-11-20T15:41:56;100006.41;;;-2.29;100.00
68525;BME280;55524;51.380;13.372;2022-11-20T15:47:46;100001.16;;;-2.39;100.00
68525;BME280;55524;51.380;13.372;2022-11-20T15:50:33;100008.03;;;-2.43;100.00
68525;BME280;55524;51.380;13.372;2022-11-20T15:53:24;100007.94;;;-2.51;100.00
68525;BME280;55524;51.380;13.372;2022-11-20T15:55:51;100004.44;;;-2.59;100.00
68525;BME280;55524;51.380;13.372;2022-11-20T16:01:30;99992.31;;;-2.67;100.00
68525;BME280;55524;51.380;13.372;2022-11-20T16:04:26;100002.63;;;-2.72;100.00
68525;BME280;55524;51.380;13.372;2022-11-20T16:06:58;100004.44;;;-2.60;100.00
68525;BME280;55524;51.380;13.372;2022-11-20T16:09:45;100015.56;;;-2.69;100.00
68525;BME280;55524;51.380;13.372;2022-11-20T16:12:51;100018.13;;;-2.70;100.00
68525;BME280;55524;51.380;13.372;2022-11-20T16:15:39;100016.38;;;-2.76;100.00
68525;BME280;55524;51.380;13.372;2022-11-20T16:18:40;100014.56;;;-2.82;100.00
68525;BME280;55524;51.380;13.372;2022-11-20T16:21:42;100014.56;;;-2.82;100.00
68525;BME280;55524;51.380;13.372;2022-11-20T16:24:32;100011.94;;;-2.88;100.00
68525;BME280;55524;51.380;13.372;2022-11-20T16:27:01;100005.84;;;-2.96;100.00
68525;BME280;55524;51.380;13.372;2022-11-20T16:29:47;100007.44;;;-3.07;100.00
68525;BME280;55524;51.380;13.372;2022-11-20T16:32:37;100014.19;;;-3.17;100.00
68525;BME280;55524;51.380;13.372;2022-11-20T16:35:42;100014.97;;;-3.27;100.00
68525;BME280;55524;51.380;13.372;2022-11-20T16:41:21;100015.66;;;-3.42;100.00
68525;BME280;55524;51.380;13.372;2022-11-20T16:44:11;100006.97;;;-3.47;100.00
68525;BME280;55524;51.380;13.372;2022-11-20T16:46:46;100006.97;;;-3.47;100.00
68525;BME280;55524;51.380;13.372;2022-11-20T16:49:34;99997.44;;;-3.53;100.00
68525;BME280;55524;51.380;13.372;2022-11-20T16:52:00;99992.25;;;-3.56;100.00
68525;BME280;55524;51.380;13.372;2022-11-20T16:54:51;99992.25;;;-3.53;100.00
68525;BME280;55524;51.380;13.372;2022-11-20T16:57:29;100002.63;;;-3.50;100.00
68525;BME280;55524;51.380;13.372;2022-11-20T17:00:18;99996.63;;;-3.50;100.00
68525;BME280;55524;51.380;13.372;2022-11-20T17:02:53;100004.31;;;-3.53;100.00
68525;BME280;55524;51.380;13.372;2022-11-20T17:05:32;100001.72;;;-3.55;100.00
68525;BME280;55524;51.380;13.372;2022-11-20T17:08:28;99993.97;;;-3.55;100.00
68525;BME280;55524;51.380;13.372;2022-11-20T17:11:16;99997.47;;;-3.50;100.00
68525;BME280;55524;51.380;13.372;2022-11-20T17:14:05;99995.06;;;-3.36;100.00
68525;BME280;55524;51.380;13.372;2022-11-20T17:16:38;99996.69;;;-3.44;100.00
68525;BME280;55524;51.380;13.372;2022-11-20T17:19:24;99990.59;;;-3.49;100.00
68525;BME280;55524;51.380;13.372;2022-11-20T17:22:28;99989.69;;;-3.54;100.00
68525;BME280;55524;51.380;13.372;2022-11-20T17:31:18;99991.41;;;-3.55;100.00
68525;BME280;55524;51.380;13.372;2022-11-20T17:34:15;99989.69;;;-3.54;100.00
68525;BME280;55524;51.380;13.372;2022-11-20T17:37:04;99987.91;;;-3.58;100.00
68525;BME280;55524;51.380;13.372;2022-11-20T17:39:30;99992.13;;;-3.65;100.00
68525;BME280;55524;51.380;13.372;2022-11-20T17:42:17;99986.91;;;-3.71;100.00
68525;BME280;55524;51.380;13.372;2022-11-20T17:45:18;99982.56;;;-3.74;100.00
68525;BME280;55524;51.380;13.372;2022-11-20T17:48:05;99979.06;;;-3.77;100.00